createdAt,value
2023-05-08T00:09:13.160Z,19.7
2023-05-08T00:19:22.009Z,19.7
2023-05-08T00:29:31.286Z,19.5
2023-05-08T00:39:39.880Z,19.5
2023-05-08T00:49:48.547Z,19.4
2023-05-08T00:59:57.574Z,19.3
2023-05-08T01:10:06.167Z,19.2
2023-05-08T01:20:14.888Z,19.3
2023-05-08T01:30:23.198Z,19
2023-05-08T01:40:31.740Z,19.1
2023-05-08T01:50:40.454Z,19.2
2023-05-08T02:00:49.046Z,19.1
2023-05-08T02:10:57.528Z,19.1
2023-05-08T02:21:06.157Z,19.3
2023-05-08T02:31:14.664Z,19.4
2023-05-08T02:41:23.249Z,19.5
2023-05-08T02:51:31.855Z,19.7
2023-05-08T03:01:40.370Z,19.7
2023-05-08T03:11:48.963Z,19.9
2023-05-08T03:21:57.527Z,19.8
2023-05-08T03:32:06.254Z,19.2
2023-05-08T03:42:14.813Z,19
2023-05-08T03:52:23.381Z,19.3
2023-05-08T04:02:32.191Z,19.5
2023-05-08T04:12:40.111Z,19.4
2023-05-08T04:22:48.551Z,19.3
2023-05-08T04:32:57.198Z,19.1
2023-05-08T04:43:06.284Z,18.9
2023-05-08T04:53:14.815Z,18.9
2023-05-08T05:03:23.459Z,18.8
2023-05-08T05:13:31.998Z,18.5
2023-05-08T05:23:40.715Z,18.6
2023-05-08T05:33:49.183Z,18.3
2023-05-08T05:43:57.764Z,18.3
2023-05-08T05:54:06.486Z,18.6
2023-05-08T06:04:15.439Z,18.8
2023-05-08T06:14:24.162Z,19
2023-05-08T06:24:32.991Z,19.3
2023-05-08T06:34:42.776Z,19.4
2023-05-08T06:44:50.480Z,19.6
2023-05-08T06:54:59.106Z,20.2
2023-05-08T07:05:07.767Z,21.7
2023-05-08T07:15:25.172Z,23.4
2023-05-08T07:25:24.200Z,23.7
2023-05-08T07:35:32.836Z,24.5
2023-05-08T07:45:41.554Z,24.2
2023-05-08T07:55:50.169Z,24.3
2023-05-08T08:05:59.324Z,25.1
2023-05-08T08:16:07.978Z,25
2023-05-08T08:26:16.620Z,25.6
2023-05-08T08:36:25.266Z,25.9
2023-05-08T08:46:33.359Z,26.1
2023-05-08T08:56:41.997Z,26.2
2023-05-08T09:06:50.523Z,26.6
2023-05-08T09:16:59.133Z,26.7
2023-05-08T09:27:07.763Z,26.7
2023-05-08T09:37:17.621Z,26.8
2023-05-08T09:47:26.209Z,27.3
2023-05-08T09:57:34.973Z,27.4
2023-05-08T10:17:45.834Z,28.1
2023-05-08T10:27:54.476Z,28.4
2023-05-08T10:38:03.259Z,28.3
2023-05-08T10:58:14.381Z,26.8
2023-05-08T11:08:23.068Z,26.4
2023-05-08T11:18:42.199Z,26.6
2023-05-08T11:28:38.745Z,26.9
2023-05-08T11:38:47.411Z,26.5
2023-05-08T11:48:55.600Z,26.5
2023-05-08T11:59:04.335Z,26.1
2023-05-08T12:09:12.956Z,27.2
2023-05-08T12:29:25.610Z,26.6
2023-05-08T12:39:24.159Z,26.2
2023-05-08T12:49:33.862Z,26.1
2023-05-08T12:59:35.814Z,26.2
2023-05-08T13:09:44.521Z,25.3
2023-05-08T13:19:53.208Z,25.6
2023-05-08T13:30:02.841Z,25.5
2023-05-08T13:40:11.581Z,25.2
2023-05-08T13:50:21.681Z,25.3
2023-05-08T14:00:22.974Z,24.9
2023-05-08T14:10:24.004Z,25.1
2023-05-08T14:20:32.880Z,25.4
2023-05-08T14:30:42.230Z,25.1
2023-05-08T14:40:46.037Z,25.1
2023-05-08T14:50:54.770Z,25.2
2023-05-08T15:00:54.986Z,25.2
2023-05-08T15:10:55.135Z,25.5
2023-05-08T15:21:04.123Z,25.9
2023-05-08T15:31:13.074Z,26
2023-05-08T15:41:21.969Z,25.9
2023-05-08T15:51:22.734Z,25.8
2023-05-08T16:01:31.837Z,25.5
2023-05-08T16:11:41.555Z,26
2023-05-08T16:21:43.047Z,25.4
2023-05-08T16:31:51.744Z,25.2
2023-05-08T16:42:00.511Z,25
2023-05-08T16:52:02.114Z,24.8
2023-05-08T17:02:11.103Z,24.7
2023-05-08T17:12:20.089Z,24.6
2023-05-08T17:22:29.057Z,24.4
2023-05-08T17:32:38.908Z,24.2
2023-05-08T17:42:47.700Z,24.3
2023-05-08T17:52:57.090Z,24.3
2023-05-08T18:03:07.931Z,24.2
2023-05-08T18:13:06.541Z,23.5
2023-05-08T18:23:15.853Z,23.5
2023-05-08T18:33:25.217Z,23.1
2023-05-08T18:43:34.570Z,22.7
2023-05-08T18:53:45.756Z,22.5
2023-05-08T19:03:54.918Z,22.2
2023-05-08T19:13:55.462Z,22.3
2023-05-08T19:24:04.563Z,22.2
2023-05-08T19:34:07.711Z,22.4
2023-05-08T19:44:19.695Z,22.6
2023-05-08T19:54:19.052Z,22.6
2023-05-08T20:04:24.454Z,22.6
2023-05-08T20:14:32.411Z,22.5
2023-05-08T20:24:41.302Z,22.5
2023-05-08T20:34:43.466Z,22.4
2023-05-08T20:44:43.992Z,22.2
2023-05-08T20:54:45.803Z,22.1
2023-05-08T21:04:54.594Z,22
2023-05-08T21:15:03.409Z,22
2023-05-08T21:25:12.554Z,22
2023-05-08T21:35:16.349Z,21.9
2023-05-08T21:45:16.102Z,21.6
2023-05-08T21:55:24.628Z,21.6
2023-05-08T22:05:32.249Z,21.4
2023-05-08T22:15:31.312Z,21.3
2023-05-08T22:25:40.029Z,21.3
2023-05-08T22:35:48.944Z,21.2
2023-05-08T22:45:57.632Z,20.9
2023-05-08T22:56:06.471Z,20.6
2023-05-08T23:06:15.184Z,20.7
2023-05-08T23:16:24.027Z,20.6
2023-05-08T23:26:33.657Z,20.7
2023-05-08T23:36:41.578Z,20.5
2023-05-08T23:46:52.191Z,20.5
2023-05-08T23:56:50.946Z,20.3
